Time;durP1;ratioP1;P1;durP2;ratioP2;P2;SDS_P1;SDS_P2;PMS_P1;PMS_P2;Temp;Humidity;BMP_temperature;BMP_pressure;BME280_temperature;BME280_humidity;BME280_pressure;Samples;Min_cycle;Max_cycle;Signal;HPM_P1;HPM_P2
2023/12/06 00:01:25;;;;;;;50.65;24.50;;;1.60;99.90;;;;;;5084613;28;20232;-67
2023/12/06 00:03:52;;;;;;;52.50;24.25;;;;;;;;;;5099249;28;20057;-67
2023/12/06 00:06:17;;;;;;;47.28;23.67;;;1.60;99.90;;;;;;5101435;28;20050;-67
2023/12/06 00:08:43;;;;;;;48.70;22.90;;;1.80;99.90;;;;;;5101104;28;20396;-68
2023/12/06 00:11:09;;;;;;;50.80;23.65;;;;;;;;;;5101326;28;20051;-67
2023/12/06 00:13:35;;;;;;;47.80;22.23;;;;;;;;;;5101280;28;20030;-66
2023/12/06 00:16:01;;;;;;;51.35;24.92;;;1.70;99.90;;;;;;5098941;28;20373;-67
2023/12/06 00:18:27;;;;;;;46.05;20.63;;;1.30;99.90;;;;;;5080845;28;20016;-67
2023/12/06 00:20:53;;;;;;;48.40;23.15;;;1.60;99.90;;;;;;5080788;28;20041;-67
2023/12/06 00:23:18;;;;;;;45.67;23.10;;;1.60;99.90;;;;;;5080961;28;20066;-67
2023/12/06 00:25:44;;;;;;;51.17;22.23;;;;;;;;;;5084877;28;20047;-68
2023/12/06 00:28:10;;;;;;;40.10;19.70;;;;;;;;;;5101109;28;20122;-70
2023/12/06 00:30:36;;;;;;;41.70;20.55;;;1.60;99.90;;;;;;5101027;28;20207;-71
2023/12/06 00:33:03;;;;;;;47.10;22.25;;;1.70;99.90;;;;;;5092852;28;20059;-71
2023/12/06 00:35:28;;;;;;;48.88;22.05;;;1.90;99.90;;;;;;5080556;28;20028;-70
2023/12/06 00:37:54;;;;;;;45.75;20.08;;;;;;;;;;5080477;28;20084;-72
2023/12/06 00:40:20;;;;;;;43.10;20.40;;;;;;;;;;5080902;28;20335;-72
2023/12/06 00:42:46;;;;;;;48.45;22.52;;;1.80;99.90;;;;;;5100665;28;20087;-70
2023/12/06 00:45:12;;;;;;;47.25;23.85;;;;;;;;;;5100638;28;20058;-68
2023/12/06 00:47:38;;;;;;;48.95;22.92;;;;;;;;;;5100620;28;20027;-69
2023/12/06 00:50:05;;;;;;;49.75;22.27;;;1.70;99.90;;;;;;5100755;28;20019;-68
2023/12/06 00:52:31;;;;;;;44.92;21.80;;;;;;;;;;5100504;28;20294;-69
2023/12/06 00:54:57;;;;;;;50.85;21.55;;;2.10;99.90;;;;;;5100701;28;20039;-69
2023/12/06 00:57:23;;;;;;;51.10;22.83;;;1.50;99.90;;;;;;5100670;28;20020;-67
2023/12/06 00:59:49;;;;;;;44.83;22.13;;;1.90;99.90;;;;;;5100496;28;20043;-69
2023/12/06 01:02:14;;;;;;;48.60;21.88;;;1.80;99.90;;;;;;5080865;28;20088;-69
2023/12/06 01:04:40;;;;;;;52.88;23.52;;;;;;;;;;5080245;28;20028;-68
2023/12/06 01:07:06;;;;;;;49.03;23.20;;;;;;;;;;5080184;28;20020;-68
2023/12/06 01:09:32;;;;;;;48.13;22.83;;;2.00;99.90;;;;;;5080383;28;20027;-68
2023/12/06 01:11:58;;;;;;;46.63;22.17;;;1.90;99.90;;;;;;5080550;28;20368;-68
2023/12/06 01:14:24;;;;;;;44.80;21.92;;;1.90;99.90;;;;;;5080155;28;20058;-68
2023/12/06 01:16:50;;;;;;;50.83;23.00;;;1.60;99.90;;;;;;5080209;28;20028;-68
2023/12/06 01:19:16;;;;;;;51.00;24.73;;;2.10;99.90;;;;;;5080260;28;20071;-68
2023/12/06 01:21:42;;;;;;;48.15;22.42;;;2.00;99.90;;;;;;5088845;28;20063;-68
2023/12/06 01:24:08;;;;;;;47.80;21.77;;;2.00;99.90;;;;;;5095787;28;20086;-68
2023/12/06 01:26:34;;;;;;;43.58;21.98;;;1.90;99.90;;;;;;5083123;28;20032;-68
2023/12/06 01:29:03;;;;;;;49.05;22.65;;;;;;;;;;5104381;28;20024;-69
2023/12/06 01:31:29;;;;;;;43.17;21.35;;;;;;;;;;5104224;28;20039;-68
2023/12/06 01:33:55;;;;;;;45.33;21.95;;;;;;;;;;5090429;28;20219;-68
2023/12/06 01:36:21;;;;;;;42.45;20.75;;;;;;;;;;5083875;28;20052;-68
2023/12/06 01:38:49;;;;;;;48.60;21.40;;;2.00;99.90;;;;;;5083747;28;20034;-68
2023/12/06 01:41:15;;;;;;;47.05;23.92;;;;;;;;;;5083726;28;20051;-68
2023/12/06 01:43:43;;;;;;;45.80;21.60;;;1.90;99.90;;;;;;5083664;28;20255;-68
2023/12/06 01:46:09;;;;;;;54.75;25.65;;;2.00;99.90;;;;;;5083934;28;20200;-69
2023/12/06 01:48:36;;;;;;;53.90;25.02;;;1.80;99.90;;;;;;5094772;28;20028;-69
2023/12/06 01:51:02;;;;;;;60.95;25.52;;;1.90;99.90;;;;;;5102638;28;20099;-68
2023/12/06 01:53:28;;;;;;;58.33;27.10;;;1.90;99.90;;;;;;5103799;28;20264;-68
2023/12/06 01:55:54;;;;;;;61.97;26.95;;;1.90;99.90;;;;;;5103682;28;20320;-68
2023/12/06 01:58:21;;;;;;;53.53;26.67;;;2.00;99.90;;;;;;5103713;28;20417;-68
2023/12/06 02:00:48;;;;;;;61.10;27.35;;;;;;;;;;5103715;28;20020;-70
2023/12/06 02:03:15;;;;;;;61.92;26.88;;;1.80;99.90;;;;;;5103595;28;20331;-69
2023/12/06 02:05:41;;;;;;;57.10;24.50;;;;;;;;;;5103653;28;20057;-69
2023/12/06 02:08:07;;;;;;;64.20;26.85;;;;;;;;;;5103911;28;20336;-68
2023/12/06 02:10:33;;;;;;;64.45;27.27;;;2.00;99.90;;;;;;5103866;28;20054;-68
2023/12/06 02:12:59;;;;;;;71.63;28.23;;;;;;;;;;5103747;28;20320;-68
2023/12/06 02:15:25;;;;;;;63.38;28.23;;;;;;;;;;5103224;28;20032;-68
2023/12/06 02:17:52;;;;;;;59.63;28.55;;;1.80;99.90;;;;;;5103581;28;20131;-67
2023/12/06 02:20:18;;;;;;;65.82;28.45;;;;;;;;;;5103538;28;20035;-67
2023/12/06 02:22:43;;;;;;;65.70;28.25;;;2.00;99.90;;;;;;5103185;28;20052;-67
2023/12/06 02:25:14;;;;;;;68.75;29.50;;;1.80;99.90;;;;;;5103138;28;20303;-67
2023/12/06 02:27:44;;;;;;;63.33;30.50;;;1.80;99.90;;;;;;5103231;28;20024;-68
2023/12/06 02:30:11;;;;;;;62.15;29.10;;;1.70;99.90;;;;;;5084121;28;20048;-67
2023/12/06 02:32:37;;;;;;;72.15;30.17;;;1.80;99.90;;;;;;5082857;28;20016;-67
2023/12/06 02:35:11;;;;;;;62.95;29.00;;;1.30;99.90;;;;;;5082996;28;20056;-67
2023/12/06 02:37:38;;;;;;;69.25;31.25;;;1.70;99.90;;;;;;5082885;28;20017;-67
2023/12/06 02:40:09;;;;;;;73.38;32.05;;;1.70;99.90;;;;;;5082891;28;20028;-67
2023/12/06 02:42:36;;;;;;;70.53;32.30;;;1.80;99.90;;;;;;5083012;28;20047;-67
2023/12/06 02:45:02;;;;;;;73.40;30.88;;;1.60;99.90;;;;;;5082773;28;20048;-69
2023/12/06 02:47:28;;;;;;;72.57;32.53;;;1.80;99.90;;;;;;5082994;28;20113;-69
2023/12/06 02:49:54;;;;;;;78.70;33.00;;;;;;;;;;5082682;28;20328;-67
2023/12/06 02:52:20;;;;;;;88.63;34.63;;;2.00;99.90;;;;;;5082759;28;20027;-68
2023/12/06 02:54:46;;;;;;;86.50;35.33;;;;;;;;;;5082447;28;20032;-68
2023/12/06 02:57:12;;;;;;;84.43;33.83;;;1.80;99.90;;;;;;5082409;28;20021;-68
2023/12/06 02:59:37;;;;;;;85.65;34.17;;;1.60;99.90;;;;;;5081052;28;20376;-67
2023/12/06 03:02:04;;;;;;;72.00;31.38;;;;;;;;;;5082545;28;20028;-67
2023/12/06 03:04:30;;;;;;;83.47;33.25;;;;;;;;;;5064438;28;20262;-68
2023/12/06 03:06:56;;;;;;;80.15;33.25;;;1.70;99.90;;;;;;5082455;28;20032;-69
2023/12/06 03:09:22;;;;;;;77.95;33.30;;;1.70;99.90;;;;;;5082453;28;20029;-69
2023/12/06 03:11:47;;;;;;;90.53;32.92;;;1.70;99.90;;;;;;5082180;28;20024;-70
2023/12/06 03:14:14;;;;;;;86.38;33.97;;;1.70;99.90;;;;;;5081974;28;20037;-70
2023/12/06 03:16:40;;;;;;;73.72;32.70;;;;;;;;;;5082113;28;20087;-68
2023/12/06 03:19:06;;;;;;;88.55;31.88;;;1.80;99.90;;;;;;5101491;28;20032;-69
2023/12/06 03:21:32;;;;;;;86.30;34.25;;;;;;;;;;5102023;28;20044;-70
2023/12/06 03:23:57;;;;;;;81.72;33.10;;;1.70;99.90;;;;;;5102184;28;20016;-68
2023/12/06 03:26:23;;;;;;;91.57;32.20;;;1.70;99.90;;;;;;5102016;28;20020;-67
2023/12/06 03:28:49;;;;;;;67.10;31.63;;;;;;;;;;5102116;28;20043;-68
2023/12/06 03:31:15;;;;;;;86.43;31.75;;;;;;;;;;5101904;28;20377;-70
2023/12/06 03:33:41;;;;;;;83.88;30.50;;;;;;;;;;5101858;28;20039;-70
2023/12/06 03:36:10;;;;;;;77.97;30.98;;;1.90;99.90;;;;;;5101913;28;20232;-70
2023/12/06 03:38:36;;;;;;;79.97;30.30;;;1.80;99.90;;;;;;5101909;28;20141;-71
2023/12/06 03:41:01;;;;;;;81.13;30.90;;;1.80;99.90;;;;;;5101912;28;20040;-71
2023/12/06 03:43:27;;;;;;;69.85;28.63;;;2.00;99.90;;;;;;5101887;28;20020;-71
2023/12/06 03:45:53;;;;;;;61.25;27.90;;;;;;;;;;5101823;28;20080;-71
2023/12/06 03:48:19;;;;;;;64.93;28.38;;;;;;;;;;5101910;28;20253;-70
2023/12/06 03:50:45;;;;;;;65.50;28.35;;;;;;;;;;5101009;28;20103;-71
2023/12/06 03:53:11;;;;;;;62.22;27.55;;;;;;;;;;5101820;28;20069;-71
2023/12/06 03:55:38;;;;;;;66.10;27.35;;;;;;;;;;5101530;28;20043;-71
2023/12/06 03:58:04;;;;;;;76.15;28.35;;;1.70;99.90;;;;;;5101614;28;20038;-71
2023/12/06 04:00:30;;;;;;;68.45;27.80;;;;;;;;;;5101698;28;20215;-71
2023/12/06 04:02:57;;;;;;;65.75;28.80;;;1.50;99.90;;;;;;5101332;28;20056;-71
2023/12/06 04:05:23;;;;;;;70.47;30.27;;;;;;;;;;5099982;28;20281;-71
2023/12/06 04:07:49;;;;;;;63.72;28.80;;;1.70;99.90;;;;;;5101207;28;20023;-71
2023/12/06 04:10:15;;;;;;;62.45;27.95;;;1.60;99.90;;;;;;5101223;28;20040;-71
2023/12/06 04:12:41;;;;;;;60.00;26.15;;;;;;;;;;5101020;28;20091;-70
2023/12/06 04:15:07;;;;;;;64.97;27.95;;;1.50;99.90;;;;;;5101143;28;20048;-70
2023/12/06 04:17:33;;;;;;;62.28;29.25;;;;;;;;;;5101132;28;20083;-70
2023/12/06 04:19:59;;;;;;;65.00;27.38;;;1.80;99.90;;;;;;5099837;28;20050;-70
2023/12/06 04:22:25;;;;;;;59.42;26.33;;;;;;;;;;5100901;28;20356;-70
2023/12/06 04:24:51;;;;;;;72.45;28.40;;;1.60;99.90;;;;;;5099712;28;20031;-70
2023/12/06 04:27:17;;;;;;;60.95;26.55;;;1.60;99.90;;;;;;5095132;28;20024;-70
2023/12/06 04:29:43;;;;;;;57.10;25.27;;;1.70;99.90;;;;;;5080768;28;20032;-70
2023/12/06 04:32:09;;;;;;;63.30;26.17;;;1.70;99.90;;;;;;5080590;28;20092;-69
2023/12/06 04:34:46;;;;;;;62.63;27.58;;;1.60;99.90;;;;;;5080533;28;20040;-69
2023/12/06 04:37:12;;;;;;;56.28;25.23;;;;;;;;;;5080805;28;20328;-69
2023/12/06 04:39:37;;;;;;;103.15;25.48;;;1.70;99.90;;;;;;5080724;28;20036;-69
2023/12/06 04:42:03;;;;;;;87.65;24.73;;;;;;;;;;5081056;28;20107;-69
2023/12/06 04:44:29;;;;;;;57.42;23.48;;;1.60;99.90;;;;;;5080722;28;20028;-70
2023/12/06 04:46:55;;;;;;;70.82;26.92;;;1.60;99.90;;;;;;5080550;28;20039;-70
2023/12/06 04:49:21;;;;;;;84.90;25.02;;;;;;;;;;5080639;28;20051;-70
2023/12/06 04:51:46;;;;;;;112.53;28.00;;;1.70;99.90;;;;;;5080633;28;20039;-70
2023/12/06 04:54:12;;;;;;;225.18;27.40;;;;;;;;;;5080322;28;20239;-70
2023/12/06 04:56:38;;;;;;;65.97;25.35;;;1.70;99.90;;;;;;5080283;28;20379;-71
2023/12/06 04:59:04;;;;;;;84.95;25.33;;;;;;;;;;5080278;28;20032;-71
2023/12/06 05:01:29;;;;;;;66.65;24.42;;;1.70;99.90;;;;;;5080380;28;20021;-72
2023/12/06 05:03:55;;;;;;;54.15;22.98;;;1.60;99.90;;;;;;5080276;28;20032;-70
2023/12/06 05:06:21;;;;;;;57.97;24.45;;;1.90;99.90;;;;;;5080105;28;20315;-70
2023/12/06 05:08:46;;;;;;;58.97;24.55;;;1.60;99.90;;;;;;5080130;28;20107;-70
2023/12/06 05:11:12;;;;;;;58.45;24.00;;;1.60;99.90;;;;;;5080135;28;20036;-70
2023/12/06 05:13:38;;;;;;;82.65;26.17;;;1.90;99.90;;;;;;5080135;28;20025;-69
2023/12/06 05:16:04;;;;;;;125.05;25.65;;;1.60;99.90;;;;;;5080176;28;20029;-69
2023/12/06 05:18:30;;;;;;;139.68;26.98;;;;;;;;;;5080138;28;20024;-69
2023/12/06 05:20:55;;;;;;;99.70;26.67;;;;;;;;;;5080011;28;20052;-70
2023/12/06 05:23:22;;;;;;;58.15;26.48;;;;;;;;;;5080095;28;20067;-68
2023/12/06 05:25:48;;;;;;;86.78;26.00;;;;;;;;;;5079959;28;20091;-70
2023/12/06 05:28:13;;;;;;;59.17;24.08;;;1.80;99.90;;;;;;5080066;28;20036;-68
2023/12/06 05:30:39;;;;;;;55.05;25.67;;;1.70;99.90;;;;;;5079891;28;20102;-69
2023/12/06 05:33:07;;;;;;;68.32;27.38;;;;;;;;;;5080260;28;20040;-70
2023/12/06 05:35:33;;;;;;;59.15;27.15;;;1.70;99.90;;;;;;5079856;28;20336;-66
2023/12/06 05:37:59;;;;;;;62.65;24.58;;;;;;;;;;5080115;28;20024;-67
2023/12/06 05:40:25;;;;;;;66.50;25.73;;;;;;;;;;5079962;28;20328;-67
2023/12/06 05:42:51;;;;;;;50.58;24.02;;;;;;;;;;5080029;28;20035;-66
2023/12/06 05:45:17;;;;;;;51.17;25.05;;;1.90;99.90;;;;;;5079789;28;20220;-69
2023/12/06 05:47:43;;;;;;;56.78;24.30;;;;;;;;;;5079732;28;20178;-70
2023/12/06 05:50:11;;;;;;;62.00;26.15;;;1.40;99.90;;;;;;5079892;28;20032;-70
2023/12/06 05:52:37;;;;;;;60.60;24.70;;;1.90;99.90;;;;;;5079715;28;20316;-71
2023/12/06 05:55:03;;;;;;;53.13;22.85;;;1.80;99.90;;;;;;5079671;28;20124;-71
2023/12/06 05:57:29;;;;;;;47.83;23.63;;;2.30;99.90;;;;;;5079901;28;20029;-70
2023/12/06 05:59:55;;;;;;;53.63;24.95;;;2.00;99.90;;;;;;5079789;28;20048;-70
2023/12/06 06:02:21;;;;;;;78.22;23.55;;;;;;;;;;5079879;28;20028;-69
2023/12/06 06:04:47;;;;;;;49.25;23.45;;;1.90;99.90;;;;;;5079782;28;20058;-68
2023/12/06 06:07:12;;;;;;;52.47;22.65;;;2.30;99.90;;;;;;5079378;28;20074;-70
2023/12/06 06:09:38;;;;;;;45.00;20.45;;;;;;;;;;5081523;28;20035;-68
2023/12/06 06:12:07;;;;;;;77.68;22.95;;;2.00;99.90;;;;;;5098330;28;20219;-69
2023/12/06 06:14:33;;;;;;;44.00;21.30;;;;;;;;;;5102040;28;20099;-69
2023/12/06 06:16:59;;;;;;;47.42;22.73;;;;;;;;;;5091865;28;20079;-69
2023/12/06 06:19:25;;;;;;;51.47;24.33;;;2.30;99.90;;;;;;5082536;28;20020;-69
2023/12/06 06:21:51;;;;;;;48.53;20.25;;;;;;;;;;5080917;28;20060;-69
2023/12/06 06:24:17;;;;;;;46.38;22.55;;;2.10;99.90;;;;;;5082943;28;20027;-69
2023/12/06 06:26:42;;;;;;;96.53;23.80;;;2.10;99.90;;;;;;5082907;28;20025;-69
2023/12/06 06:29:08;;;;;;;49.63;23.65;;;2.00;99.90;;;;;;5082992;28;20033;-70
2023/12/06 06:31:34;;;;;;;53.22;23.30;;;2.10;99.90;;;;;;5082804;28;20529;-70
2023/12/06 06:34:02;;;;;;;60.38;23.30;;;2.10;99.90;;;;;;5082591;28;20339;-70
2023/12/06 06:36:28;;;;;;;57.85;25.13;;;2.10;99.90;;;;;;5082392;28;20092;-69
2023/12/06 06:38:55;;;;;;;60.03;26.02;;;2.10;99.90;;;;;;5094245;28;20051;-70
2023/12/06 06:41:21;;;;;;;54.67;24.92;;;0.90;99.90;;;;;;5103002;28;20040;-70
2023/12/06 06:43:47;;;;;;;59.65;22.75;;;;;;;;;;5101649;28;20092;-69
2023/12/06 06:46:13;;;;;;;49.78;24.38;;;;;;;;;;5102839;28;20083;-68
2023/12/06 06:48:39;;;;;;;46.95;23.75;;;2.00;99.90;;;;;;5103026;28;20046;-70
2023/12/06 06:51:05;;;;;;;63.53;25.85;;;;;;;;;;5102736;28;20336;-70
2023/12/06 06:53:31;;;;;;;58.72;24.40;;;;;;;;;;5102680;28;20035;-68
2023/12/06 06:55:57;;;;;;;88.75;26.48;;;2.10;99.90;;;;;;5102583;28;20039;-69
2023/12/06 06:58:22;;;;;;;115.03;25.55;;;2.20;99.90;;;;;;5101894;28;20013;-68
2023/12/06 07:00:49;;;;;;;78.07;24.70;;;1.90;99.90;;;;;;5082917;28;20315;-70
2023/12/06 07:03:18;;;;;;;79.88;23.23;;;;;;;;;;5100988;28;20027;-70
2023/12/06 07:05:44;;;;;;;103.38;23.70;;;;;;;;;;5101205;28;20036;-70
2023/12/06 07:08:13;;;;;;;81.18;24.63;;;1.80;99.90;;;;;;5102493;28;20024;-70
2023/12/06 07:10:39;;;;;;;54.92;23.88;;;;;;;;;;5100498;28;20042;-70
2023/12/06 07:13:05;;;;;;;47.72;22.58;;;2.00;99.90;;;;;;5082238;28;20036;-70
2023/12/06 07:15:31;;;;;;;76.78;24.40;;;;;;;;;;5081828;28;20430;-71
2023/12/06 07:17:57;;;;;;;50.80;22.02;;;2.00;99.90;;;;;;5081897;28;20280;-69
2023/12/06 07:20:24;;;;;;;60.30;23.63;;;2.00;99.90;;;;;;5081989;28;20028;-70
2023/12/06 07:22:50;;;;;;;52.60;23.65;;;1.70;99.90;;;;;;5081890;28;20048;-70
2023/12/06 07:25:16;;;;;;;52.80;24.48;;;;;;;;;;5080747;28;20370;-70
2023/12/06 07:27:45;;;;;;;57.63;25.20;;;2.10;99.90;;;;;;5081849;28;20087;-69
2023/12/06 07:30:16;;;;;;;53.85;24.52;;;2.00;99.90;;;;;;5081931;28;20131;-69
2023/12/06 07:32:43;;;;;;;62.13;26.73;;;;;;;;;;5081755;28;20315;-68
2023/12/06 07:35:08;;;;;;;54.80;24.30;;;1.70;99.90;;;;;;5081432;28;20028;-69
2023/12/06 07:37:34;;;;;;;56.60;24.60;;;;;;;;;;5080843;28;20147;-69
2023/12/06 07:40:00;;;;;;;53.30;24.58;;;;;;;;;;5079792;28;20086;-68
2023/12/06 07:42:27;;;;;;;51.90;24.65;;;;;;;;;;5080866;28;20024;-69
2023/12/06 07:44:54;;;;;;;49.20;24.13;;;;;;;;;;5081104;28;20197;-69
2023/12/06 07:47:20;;;;;;;56.28;24.27;;;2.30;99.90;;;;;;5081098;28;20374;-69
2023/12/06 07:49:46;;;;;;;68.47;25.80;;;2.10;99.90;;;;;;5081356;28;20028;-69
2023/12/06 07:52:12;;;;;;;52.72;24.80;;;;;;;;;;5081730;28;20070;-68
2023/12/06 07:54:38;;;;;;;52.00;25.02;;;;;;;;;;5081330;28;20344;-68
2023/12/06 07:57:04;;;;;;;57.40;25.48;;;2.10;99.90;;;;;;5081472;28;20028;-69
2023/12/06 07:59:30;;;;;;;64.35;24.25;;;2.00;99.90;;;;;;5081358;28;20124;-68
2023/12/06 08:01:55;;;;;;;59.97;25.50;;;2.10;99.90;;;;;;5081272;28;20041;-68
2023/12/06 08:04:21;;;;;;;90.22;27.38;;;;;;;;;;5081337;28;20101;-69
2023/12/06 08:06:47;;;;;;;64.93;26.45;;;2.10;99.90;;;;;;5081048;28;20095;-69
2023/12/06 08:09:13;;;;;;;60.10;25.13;;;2.00;99.90;;;;;;5081066;28;20028;-69
2023/12/06 08:11:41;;;;;;;303.55;27.80;;;1.90;99.90;;;;;;5081008;28;20027;-69
2023/12/06 08:14:08;;;;;;;294.60;28.95;;;1.90;99.90;;;;;;5080943;28;20047;-68
2023/12/06 08:16:34;;;;;;;224.23;27.00;;;;;;;;;;5080962;28;20372;-69
2023/12/06 08:19:00;;;;;;;176.95;28.02;;;2.10;99.90;;;;;;5080970;28;20020;-68
2023/12/06 08:21:26;;;;;;;83.47;26.30;;;;;;;;;;5080785;28;20143;-69
2023/12/06 08:23:52;;;;;;;58.53;28.15;;;;;;;;;;5080599;28;20043;-68
2023/12/06 08:26:18;;;;;;;71.97;26.77;;;2.00;99.90;;;;;;5080962;28;20008;-68
2023/12/06 08:28:45;;;;;;;73.22;26.85;;;;;;;;;;5080611;28;20320;-68
2023/12/06 08:31:10;;;;;;;116.65;26.80;;;2.10;99.90;;;;;;5079404;28;20029;-69
2023/12/06 08:33:36;;;;;;;97.35;26.50;;;2.10;99.90;;;;;;5081070;28;20091;-69
2023/12/06 08:36:02;;;;;;;191.88;27.10;;;2.10;99.90;;;;;;5078973;28;20336;-69
2023/12/06 08:38:28;;;;;;;94.15;28.95;;;2.20;99.90;;;;;;5080640;28;20032;-69
2023/12/06 08:40:54;;;;;;;78.90;28.08;;;;;;;;;;5079299;28;20043;-69
2023/12/06 08:43:20;;;;;;;74.57;26.95;;;2.00;99.90;;;;;;5080341;28;20024;-69
2023/12/06 08:45:46;;;;;;;75.65;27.80;;;2.00;99.90;;;;;;5080645;28;20033;-69
2023/12/06 08:48:12;;;;;;;63.17;27.45;;;;;;;;;;5080366;28;20328;-69
2023/12/06 08:50:38;;;;;;;87.35;26.20;;;;;;;;;;5080463;28;20036;-69
2023/12/06 08:53:04;;;;;;;55.42;26.27;;;2.10;99.90;;;;;;5080305;28;20055;-69
2023/12/06 08:55:30;;;;;;;78.30;27.25;;;;;;;;;;5080395;28;20037;-69
2023/12/06 08:57:56;;;;;;;256.67;28.15;;;2.00;99.90;;;;;;5080290;28;20088;-69
2023/12/06 09:00:22;;;;;;;245.30;27.27;;;;;;;;;;5080228;28;20035;-69
2023/12/06 09:02:48;;;;;;;291.52;30.85;;;2.20;99.90;;;;;;5080488;28;20028;-69
2023/12/06 09:05:13;;;;;;;66.53;25.80;;;2.10;99.90;;;;;;5080236;28;20219;-69
2023/12/06 09:07:41;;;;;;;68.78;26.35;;;2.40;99.90;;;;;;5080149;28;20025;-69
2023/12/06 09:10:08;;;;;;;181.40;28.30;;;2.40;99.90;;;;;;5080320;28;20028;-69
2023/12/06 09:12:34;;;;;;;74.03;27.58;;;2.60;99.90;;;;;;5080164;28;20036;-69
2023/12/06 09:14:59;;;;;;;65.95;29.20;;;2.40;99.90;;;;;;5079948;28;20036;-69
2023/12/06 09:17:25;;;;;;;75.22;26.38;;;;;;;;;;5080303;28;20029;-69
2023/12/06 09:19:52;;;;;;;81.55;29.85;;;;;;;;;;5080209;28;20268;-69
2023/12/06 09:22:20;;;;;;;94.50;28.30;;;2.40;99.90;;;;;;5079873;28;20352;-69
2023/12/06 09:24:46;;;;;;;250.63;28.10;;;;;;;;;;5080054;28;20020;-69
2023/12/06 09:27:13;;;;;;;104.82;27.00;;;2.30;99.90;;;;;;5080065;28;20185;-69
2023/12/06 09:29:39;;;;;;;190.45;28.45;;;;;;;;;;5078929;28;20051;-69
2023/12/06 09:32:05;;;;;;;263.08;31.40;;;2.20;99.90;;;;;;5080075;28;20016;-69
2023/12/06 09:34:31;;;;;;;68.90;27.23;;;;;;;;;;5080077;28;20086;-69
2023/12/06 09:36:58;;;;;;;149.73;29.85;;;2.40;99.90;;;;;;5079019;28;20020;-69
2023/12/06 09:39:24;;;;;;;64.15;25.92;;;;;;;;;;5079069;28;20324;-69
2023/12/06 09:41:50;;;;;;;66.55;26.10;;;2.40;99.90;;;;;;5080436;28;20017;-69
2023/12/06 09:44:16;;;;;;;61.10;24.88;;;;;;;;;;5078814;28;20336;-69
2023/12/06 09:46:43;;;;;;;52.88;25.65;;;2.60;99.90;;;;;;5080188;28;20028;-69
2023/12/06 09:49:09;;;;;;;50.38;25.10;;;;;;;;;;5082437;28;20027;-69
2023/12/06 09:51:35;;;;;;;52.60;26.35;;;;;;;;;;5083843;28;20025;-69
2023/12/06 09:54:01;;;;;;;64.18;25.40;;;2.40;99.90;;;;;;5083718;28;20039;-69
2023/12/06 09:56:27;;;;;;;47.22;24.27;;;2.40;99.90;;;;;;5083429;28;20024;-69
2023/12/06 09:58:53;;;;;;;51.33;25.02;;;2.30;99.90;;;;;;5083412;28;20020;-69
2023/12/06 10:01:18;;;;;;;47.60;23.73;;;2.50;99.90;;;;;;5083698;28;20035;-68
2023/12/06 10:03:46;;;;;;;50.42;23.35;;;2.40;99.90;;;;;;5083505;28;20251;-69
2023/12/06 10:06:12;;;;;;;54.50;23.98;;;2.40;99.90;;;;;;5083466;28;20058;-69
2023/12/06 10:08:38;;;;;;;42.83;21.88;;;2.40;99.90;;;;;;5083307;28;20020;-68
2023/12/06 10:11:08;;;;;;;45.17;22.60;;;2.50;99.90;;;;;;5083238;28;20103;-69
2023/12/06 10:13:34;;;;;;;44.45;23.17;;;;;;;;;;5083327;28;20077;-69
2023/12/06 10:16:01;;;;;;;44.88;22.42;;;2.60;99.90;;;;;;5083063;28;20116;-69
2023/12/06 10:18:27;;;;;;;44.25;22.42;;;2.90;99.90;;;;;;5083227;28;20031;-69
2023/12/06 10:20:53;;;;;;;42.67;20.65;;;;;;;;;;5083119;28;20035;-69
2023/12/06 10:23:18;;;;;;;41.97;21.83;;;2.70;99.90;;;;;;5083093;28;20235;-68
2023/12/06 10:25:47;;;;;;;46.72;22.25;;;2.70;99.90;;;;;;5083114;28;20038;-69
2023/12/06 10:28:14;;;;;;;43.47;20.38;;;2.50;99.90;;;;;;5082934;28;20020;-68
2023/12/06 10:30:40;;;;;;;44.38;20.83;;;;;;;;;;5083013;28;20032;-69
2023/12/06 10:33:06;;;;;;;85.57;22.20;;;2.70;99.90;;;;;;5082817;28;20047;-68
2023/12/06 10:35:33;;;;;;;229.43;23.48;;;2.70;99.90;;;;;;5082785;28;20044;-68
2023/12/06 10:37:59;;;;;;;138.35;22.85;;;2.60;99.90;;;;;;5083096;28;20080;-68
2023/12/06 10:40:26;;;;;;;182.50;24.05;;;;;;;;;;5082849;28;20056;-68
2023/12/06 10:43:00;;;;;;;45.25;22.63;;;2.60;99.90;;;;;;5083146;28;20095;-68
2023/12/06 10:45:26;;;;;;;41.42;20.77;;;2.50;99.90;;;;;;5082851;28;20335;-69
2023/12/06 10:47:54;;;;;;;44.50;21.23;;;3.00;99.90;;;;;;5082911;28;20031;-68
2023/12/06 10:50:20;;;;;;;46.63;20.77;;;;;;;;;;5082791;28;20028;-69
2023/12/06 10:52:47;;;;;;;38.60;21.38;;;2.70;99.90;;;;;;5082935;28;20049;-69
2023/12/06 10:55:15;;;;;;;44.03;22.05;;;1.50;99.90;;;;;;5082600;28;20094;-69
2023/12/06 10:57:42;;;;;;;47.10;22.35;;;2.40;99.90;;;;;;5082847;28;20096;-69
2023/12/06 11:00:09;;;;;;;40.60;21.02;;;2.70;99.90;;;;;;5081105;28;20028;-69
2023/12/06 11:02:34;;;;;;;43.55;20.65;;;3.00;99.90;;;;;;5082479;28;20023;-69
2023/12/06 11:05:05;;;;;;;69.78;22.58;;;2.90;99.90;;;;;;5082429;28;20291;-69
2023/12/06 11:08:01;;;;;;;42.30;19.55;;;3.10;99.90;;;;;;5082384;28;20039;-70
2023/12/06 11:10:36;;;;;;;40.85;21.08;;;2.90;99.90;;;;;;5082574;28;20008;-70
2023/12/06 11:13:18;;;;;;;174.75;23.50;;;2.90;99.90;;;;;;5082329;28;20316;-69
2023/12/06 11:16:22;;;;;;;141.98;24.58;;;2.80;99.90;;;;;;5080841;28;20213;-69
2023/12/06 11:18:50;;;;;;;76.78;25.55;;;2.80;99.90;;;;;;5082307;28;20016;-69
2023/12/06 11:21:19;;;;;;;239.70;27.05;;;2.80;99.90;;;;;;5081921;28;20120;-69
2023/12/06 11:23:46;;;;;;;254.45;26.27;;;3.00;99.90;;;;;;5082191;28;20086;-69
2023/12/06 11:26:12;;;;;;;94.95;24.48;;;;;;;;;;5082323;28;20020;-69
2023/12/06 11:28:39;;;;;;;206.73;25.23;;;2.70;99.90;;;;;;5082174;28;20020;-69
2023/12/06 11:31:06;;;;;;;70.25;24.65;;;2.80;99.90;;;;;;5082001;28;20078;-69
2023/12/06 11:33:31;;;;;;;76.53;23.10;;;2.80;99.90;;;;;;5081683;28;20082;-69
2023/12/06 11:35:57;;;;;;;72.80;23.02;;;2.80;99.90;;;;;;5081767;28;20036;-69
2023/12/06 11:38:37;;;;;;;87.63;22.77;;;3.10;99.90;;;;;;5081830;28;20016;-69
2023/12/06 11:41:06;;;;;;;155.05;24.20;;;2.80;99.90;;;;;;5081564;28;20055;-69
2023/12/06 11:43:34;;;;;;;207.15;24.02;;;2.90;99.90;;;;;;5081571;28;20082;-71
2023/12/06 11:46:07;;;;;;;177.00;23.67;;;3.30;99.90;;;;;;5080248;28;20046;-69
2023/12/06 11:48:35;;;;;;;89.20;23.73;;;3.40;99.90;;;;;;5081376;28;20059;-69
2023/12/06 11:51:02;;;;;;;105.43;24.25;;;;;;;;;;5081675;28;20024;-70
2023/12/06 11:53:29;;;;;;;103.40;23.65;;;2.90;99.90;;;;;;5081393;28;20335;-69
2023/12/06 11:55:55;;;;;;;359.70;32.95;;;2.90;99.90;;;;;;5081215;28;20067;-69
2023/12/06 11:58:22;;;;;;;297.75;25.77;;;;;;;;;;5081433;28;20025;-69
2023/12/06 12:00:51;;;;;;;223.88;26.33;;;2.80;99.90;;;;;;5081196;28;20095;-69
2023/12/06 12:03:17;;;;;;;399.77;26.88;;;2.90;99.90;;;;;;5081374;28;20029;-69
2023/12/06 12:05:44;;;;;;;168.60;23.88;;;;;;;;;;5081282;28;20031;-69
2023/12/06 12:08:13;;;;;;;107.60;23.50;;;2.60;99.90;;;;;;5081227;28;20024;-69
2023/12/06 12:10:40;;;;;;;83.13;21.67;;;2.80;99.90;;;;;;5080691;28;20051;-69
2023/12/06 12:13:24;;;;;;;51.67;21.00;;;2.80;99.90;;;;;;5080753;28;20035;-69
2023/12/06 12:15:54;;;;;;;198.98;23.42;;;3.00;99.90;;;;;;5080875;28;20037;-69
2023/12/06 12:18:21;;;;;;;45.42;20.08;;;3.10;99.90;;;;;;5081175;28;20050;-69
2023/12/06 12:20:46;;;;;;;175.25;21.90;;;2.90;99.90;;;;;;5080933;28;20076;-69
2023/12/06 12:23:12;;;;;;;83.05;22.63;;;;;;;;;;5081007;28;20040;-69
2023/12/06 12:25:51;;;;;;;43.85;22.05;;;2.90;99.90;;;;;;5080884;28;20324;-69
2023/12/06 12:28:21;;;;;;;43.00;20.80;;;2.90;99.90;;;;;;5080971;28;20027;-69
2023/12/06 12:30:50;;;;;;;46.03;20.05;;;2.90;99.90;;;;;;5080553;28;20227;-69
2023/12/06 12:33:18;;;;;;;42.35;19.33;;;3.00;99.90;;;;;;5080715;28;20040;-69
2023/12/06 12:35:44;;;;;;;92.57;22.00;;;3.00;99.90;;;;;;5080623;28;20094;-69
2023/12/06 12:38:10;;;;;;;62.42;23.50;;;2.90;99.90;;;;;;5080898;28;20020;-69
2023/12/06 12:40:37;;;;;;;53.33;22.25;;;;;;;;;;5080825;28;20028;-68
2023/12/06 12:43:04;;;;;;;248.50;25.63;;;2.90;99.90;;;;;;5080897;28;20020;-68
2023/12/06 12:45:30;;;;;;;327.05;25.30;;;2.90;99.90;;;;;;5080640;28;20066;-68
2023/12/06 12:47:57;;;;;;;278.90;22.88;;;3.00;99.90;;;;;;5080590;28;20032;-68
2023/12/06 12:50:23;;;;;;;402.23;26.20;;;;;;;;;;5080736;28;20095;-68
2023/12/06 12:52:51;;;;;;;235.70;23.75;;;2.60;99.90;;;;;;5080458;28;20035;-68
2023/12/06 12:55:17;;;;;;;56.03;21.73;;;2.70;99.90;;;;;;5080365;28;20038;-68
2023/12/06 12:57:44;;;;;;;46.45;21.52;;;2.80;99.90;;;;;;5080412;28;20048;-69
2023/12/06 13:00:15;;;;;;;45.63;20.48;;;2.70;99.90;;;;;;5080711;28;20021;-69
2023/12/06 13:02:41;;;;;;;41.90;19.33;;;2.70;99.90;;;;;;5080520;28;20039;-69